Archival Weather

Norman Y Mineta San Jose Intl

San Jose, California (KSJC)

Report from: Saturday, February 3, 2024 2:53 AM PST
Current time: Friday, June 14, 2024 6:24 AM PDT

Current weather – Weather history – Daily summaries
Weather forecast

Temperature8.9°C (48.0°F)
Wind chill7.5°C (45.4°F)
Dew point5.6°C (42.1°F)
Winds 5 kts (2.6 m/s, 5.8 mph) South-Southeast (150°)
Visibility10 mi. (16.1 km)
Clouds Few clouds 4,700 ft. (1,433 m)
Altimeter30.02 in.Hg (1017 mB)
Relative humidity80 %
Density altitude-706 ft. (-215 m)
Sea-level pressure101.6 kPa (1016 mB, 30.01 in.Hg)
Remarks Fully automated report
Automated weather observing station with precipitation discriminator
Flight conditions Visual Meteorological Conditions
Raw dataKSJC 031053Z AUTO 15005KT 10SM FEW047 09/06 A3002 RMK AO2 SLP164 T00890056
An error has occurred. This application may no longer respond until reloaded. Reload 🗙